Time;durP1;ratioP1;P1;durP2;ratioP2;P2;SDS_P1;SDS_P2;PMS_P1;PMS_P2;Temp;Humidity;BMP_temperature;BMP_pressure;BME280_temperature;BME280_humidity;BME280_pressure;Samples;Min_cycle;Max_cycle;Signal;HPM_P1;HPM_P2
2021/03/12 00:01:07;;;;;;;14.75;1.90;;;7.40;94.70;;;;;;5028779;28;20037;-79
2021/03/12 00:03:35;;;;;;;15.88;2.05;;;7.40;94.70;;;;;;5044372;28;20028;-79
2021/03/12 00:06:06;;;;;;;16.13;2.95;;;7.40;94.50;;;;;;5045173;28;20086;-79
2021/03/12 00:08:41;;;;;;;16.02;2.35;;;7.40;94.40;;;;;;5044259;28;20044;-80
2021/03/12 00:11:09;;;;;;;15.85;1.90;;;7.40;94.40;;;;;;5028681;28;20038;-80
2021/03/12 00:13:37;;;;;;;14.75;2.45;;;7.40;94.30;;;;;;5011123;28;20029;-79
2021/03/12 00:16:05;;;;;;;19.52;2.35;;;7.40;94.20;;;;;;5044367;28;20044;-78
2021/03/12 00:18:41;;;;;;;15.60;1.95;;;7.40;94.20;;;;;;5026537;28;20036;-81
2021/03/12 00:21:09;;;;;;;15.60;1.80;;;7.40;94.10;;;;;;5051030;28;20037;-81
2021/03/12 00:23:36;;;;;;;10.88;1.77;;;7.40;94.10;;;;;;5044235;28;20045;-81
2021/03/12 00:26:03;;;;;;;14.15;1.45;;;7.40;94.10;;;;;;5014007;28;20048;-81
2021/03/12 00:28:32;;;;;;;18.27;1.90;;;7.40;94.00;;;;;;5017809;28;20407;-81
2021/03/12 00:31:00;;;;;;;14.25;1.50;;;7.50;94.00;;;;;;5036560;28;20488;-81
2021/03/12 00:33:28;;;;;;;14.50;1.63;;;7.50;94.00;;;;;;5048906;28;20795;-81
2021/03/12 00:35:55;;;;;;;14.65;1.35;;;7.40;93.80;;;;;;5052132;28;20049;-81
2021/03/12 00:38:22;;;;;;;17.10;1.50;;;7.40;93.70;;;;;;5036103;28;20040;-81
2021/03/12 00:40:55;;;;;;;14.50;2.03;;;7.40;93.60;;;;;;5030626;28;20049;-83
2021/03/12 00:43:25;;;;;;;8.93;1.00;;;7.40;93.40;;;;;;5035681;28;20052;-82
2021/03/12 00:45:59;;;;;;;11.23;1.15;;;7.40;93.40;;;;;;5034390;28;20041;-81
2021/03/12 00:48:27;;;;;;;18.52;1.67;;;7.40;93.40;;;;;;5048869;28;20044;-81
2021/03/12 00:51:02;;;;;;;16.17;1.77;;;7.40;93.20;;;;;;5017688;28;20897;-81
2021/03/12 00:53:38;;;;;;;11.75;1.30;;;7.30;93.40;;;;;;5003342;28;20041;-82
2021/03/12 00:56:07;;;;;;;14.68;1.70;;;7.30;93.20;;;;;;5036637;28;20060;-82
2021/03/12 00:58:36;;;;;;;11.55;1.40;;;7.40;93.60;;;;;;5016060;28;20061;-82
2021/03/12 01:01:05;;;;;;;14.75;1.17;;;7.40;93.30;;;;;;5016566;28;20045;-82
2021/03/12 01:03:35;;;;;;;11.82;1.30;;;7.30;93.30;;;;;;5032687;28;20041;-82
2021/03/12 01:06:08;;;;;;;13.65;1.40;;;7.30;93.10;;;;;;5036319;28;20032;-82
2021/03/12 01:08:54;;;;;;;12.63;1.23;;;7.30;93.10;;;;;;5019615;28;20060;-82
2021/03/12 01:11:24;;;;;;;6.43;1.40;;;7.30;93.10;;;;;;5021995;28;20036;-81
2021/03/12 01:13:51;;;;;;;11.10;1.25;;;7.30;93.10;;;;;;5017402;28;20043;-82
2021/03/12 01:16:19;;;;;;;15.40;2.30;;;7.30;93.20;;;;;;5020347;28;20044;-81
2021/03/12 01:18:46;;;;;;;12.07;1.25;;;7.30;93.20;;;;;;5037087;28;20044;-81
2021/03/12 01:21:20;;;;;;;12.30;1.48;;;7.30;93.20;;;;;;5032627;28;20499;-81
2021/03/12 01:23:50;;;;;;;9.43;1.20;;;7.30;93.10;;;;;;5050275;28;20033;-81
2021/03/12 01:26:17;;;;;;;16.50;1.85;;;7.30;93.00;;;;;;5030763;28;20041;-80
2021/03/12 01:28:48;;;;;;;10.20;1.73;;;7.30;93.10;;;;;;5030675;28;20056;-80
2021/03/12 01:31:17;;;;;;;13.70;1.65;;;7.30;93.00;;;;;;5015246;28;20043;-80
2021/03/12 01:33:53;;;;;;;7.40;0.98;;;7.20;92.90;;;;;;5015739;28;20052;-81
2021/03/12 01:36:27;;;;;;;11.45;1.33;;;7.20;93.00;;;;;;5002247;28;20040;-81
2021/03/12 01:39:00;;;;;;;16.23;1.63;;;7.20;92.90;;;;;;5031791;28;20060;-80
2021/03/12 01:41:28;;;;;;;14.23;1.83;;;7.20;92.90;;;;;;5014472;28;20044;-80
2021/03/12 01:43:59;;;;;;;14.45;1.65;;;7.20;92.90;;;;;;4991006;28;20028;-80
2021/03/12 01:46:29;;;;;;;14.55;1.20;;;7.20;92.90;;;;;;5015290;28;20039;-81
2021/03/12 01:48:56;;;;;;;14.57;1.80;;;7.20;92.90;;;;;;5029310;28;20060;-81
2021/03/12 01:51:23;;;;;;;14.15;1.48;;;7.20;92.90;;;;;;5032437;28;20048;-80
2021/03/12 01:53:51;;;;;;;10.68;1.38;;;7.20;92.90;;;;;;5012776;28;20055;-81
2021/03/12 01:56:17;;;;;;;10.00;1.65;;;7.20;92.80;;;;;;5032815;28;20033;-80
2021/03/12 01:58:52;;;;;;;15.73;2.28;;;7.20;92.70;;;;;;5016479;28;20056;-80
2021/03/12 02:01:37;;;;;;;15.48;1.88;;;7.20;92.50;;;;;;5001911;28;20055;-80
2021/03/12 02:04:11;;;;;;;12.65;2.05;;;7.20;92.50;;;;;;5015821;28;20037;-80
2021/03/12 02:07:00;;;;;;;14.07;2.05;;;7.20;92.40;;;;;;5047835;28;20510;-80
2021/03/12 02:09:27;;;;;;;9.40;1.30;;;7.20;92.40;;;;;;5013099;28;20056;-80
2021/03/12 02:12:06;;;;;;;14.52;2.10;;;7.10;92.40;;;;;;5044267;28;20064;-80
2021/03/12 02:15:01;;;;;;;7.78;1.52;;;7.10;92.40;;;;;;5029230;28;20029;-80
2021/03/12 02:17:41;;;;;;;14.98;2.25;;;7.10;92.60;;;;;;5046104;28;20041;-79
2021/03/12 02:20:28;;;;;;;14.75;2.13;;;7.10;92.60;;;;;;5029353;28;20045;-80
2021/03/12 02:23:21;;;;;;;13.75;2.00;;;7.10;92.60;;;;;;5031509;28;20459;-80
2021/03/12 02:25:58;;;;;;;11.02;2.22;;;7.00;92.60;;;;;;5046811;28;20052;-80
2021/03/12 02:28:26;;;;;;;13.15;1.92;;;7.10;92.70;;;;;;5029008;28;20531;-80
2021/03/12 02:30:56;;;;;;;18.20;2.90;;;7.10;92.70;;;;;;5030822;28;20057;-80
2021/03/12 02:33:26;;;;;;;13.23;1.73;;;7.10;92.70;;;;;;5027797;28;20041;-80
2021/03/12 02:35:56;;;;;;;19.50;2.33;;;7.10;92.70;;;;;;5030807;28;20037;-80
2021/03/12 02:38:43;;;;;;;15.55;2.38;;;7.10;92.80;;;;;;5034066;28;20056;-80
2021/03/12 02:41:16;;;;;;;8.85;1.27;;;7.10;92.80;;;;;;5021410;28;20052;-80
2021/03/12 02:43:47;;;;;;;18.90;2.20;;;7.10;92.90;;;;;;5032195;28;20049;-80
2021/03/12 02:46:17;;;;;;;10.80;1.70;;;7.10;92.70;;;;;;5032191;28;20056;-80
2021/03/12 02:48:46;;;;;;;16.33;2.50;;;7.10;92.70;;;;;;5031403;28;20032;-80
2021/03/12 02:51:16;;;;;;;7.57;1.05;;;7.00;92.60;;;;;;4997212;28;20037;-80
2021/03/12 02:53:45;;;;;;;13.43;1.43;;;7.00;92.70;;;;;;5017553;28;20053;-81
2021/03/12 02:56:22;;;;;;;21.30;2.15;;;7.00;92.80;;;;;;5014601;28;20041;-80
2021/03/12 02:58:50;;;;;;;14.13;1.65;;;7.00;92.80;;;;;;5014247;28;20052;-81
2021/03/12 03:01:30;;;;;;;12.63;1.88;;;7.00;93.00;;;;;;5013687;28;20597;-80
2021/03/12 03:04:18;;;;;;;17.05;1.73;;;7.00;92.90;;;;;;5017423;28;20032;-81
2021/03/12 03:06:57;;;;;;;14.35;2.17;;;6.90;92.90;;;;;;5048437;28;20479;-80
2021/03/12 03:09:26;;;;;;;16.15;2.53;;;7.00;92.90;;;;;;5029056;28;20233;-81
2021/03/12 03:11:53;;;;;;;11.10;1.67;;;6.90;92.90;;;;;;5012786;28;20040;-81
2021/03/12 03:14:20;;;;;;;16.73;1.50;;;6.90;93.00;;;;;;5012100;28;20388;-81
2021/03/12 03:16:48;;;;;;;14.27;1.60;;;6.90;93.00;;;;;;5045948;28;20037;-80
2021/03/12 03:19:17;;;;;;;14.75;1.48;;;6.90;93.10;;;;;;5031573;28;20056;-81
2021/03/12 03:21:45;;;;;;;13.90;1.35;;;6.90;93.00;;;;;;5013503;28;20052;-81
2021/03/12 03:24:13;;;;;;;16.55;1.60;;;6.90;93.00;;;;;;5028142;28;20061;-80
2021/03/12 03:26:40;;;;;;;18.45;1.83;;;6.90;93.00;;;;;;5031534;28;20037;-80
2021/03/12 03:29:08;;;;;;;10.07;1.17;;;6.90;93.10;;;;;;5012295;28;20044;-81
2021/03/12 03:31:36;;;;;;;19.15;2.08;;;6.80;93.00;;;;;;5030532;28;20028;-81
2021/03/12 03:34:03;;;;;;;16.30;1.73;;;6.80;92.90;;;;;;5028574;28;20037;-81
2021/03/12 03:36:31;;;;;;;12.18;1.10;;;6.70;93.00;;;;;;5013895;28;20029;-81
2021/03/12 03:38:58;;;;;;;16.02;1.30;;;6.70;93.00;;;;;;5012312;28;20041;-81
2021/03/12 03:41:25;;;;;;;15.95;1.55;;;6.70;93.10;;;;;;5011887;28;20059;-81
2021/03/12 03:43:54;;;;;;;18.58;1.75;;;6.80;93.10;;;;;;4996376;28;20413;-81
2021/03/12 03:46:27;;;;;;;12.32;1.80;;;6.70;93.00;;;;;;5014348;28;20036;-81
2021/03/12 03:48:57;;;;;;;10.45;1.08;;;6.70;93.00;;;;;;5045090;28;20045;-80
2021/03/12 03:51:39;;;;;;;21.58;1.90;;;6.80;93.10;;;;;;5043944;28;20056;-81
2021/03/12 03:54:07;;;;;;;15.07;2.35;;;6.70;93.10;;;;;;5019913;28;20036;-80
2021/03/12 03:56:38;;;;;;;12.52;1.65;;;6.60;93.10;;;;;;5029175;28;20033;-81
2021/03/12 03:59:06;;;;;;;13.98;1.52;;;6.60;93.10;;;;;;4995469;28;20045;-81
2021/03/12 04:01:35;;;;;;;16.83;1.48;;;6.60;93.30;;;;;;5032079;28;20045;-81
2021/03/12 04:04:02;;;;;;;17.25;1.23;;;6.60;93.20;;;;;;5049231;28;20040;-81
2021/03/12 04:06:31;;;;;;;9.57;1.17;;;6.60;93.20;;;;;;5033081;28;20064;-82
2021/03/12 04:09:01;;;;;;;12.88;1.15;;;6.50;93.30;;;;;;5015593;28;20052;-81
2021/03/12 04:11:32;;;;;;;10.98;1.00;;;6.50;93.40;;;;;;5031320;28;20033;-81
2021/03/12 04:14:00;;;;;;;12.93;1.60;;;6.50;93.40;;;;;;5040630;28;20036;-81
2021/03/12 04:16:28;;;;;;;17.52;1.40;;;6.60;93.50;;;;;;5027924;28;20807;-80
2021/03/12 04:18:58;;;;;;;12.95;0.93;;;6.50;93.40;;;;;;5039733;28;20052;-80
2021/03/12 04:21:25;;;;;;;13.93;1.55;;;6.50;93.40;;;;;;5036326;28;20036;-80
2021/03/12 04:24:00;;;;;;;13.23;1.50;;;6.50;93.40;;;;;;5037749;28;20395;-80
2021/03/12 04:26:27;;;;;;;13.00;1.50;;;6.50;93.40;;;;;;5053331;28;20040;-80
2021/03/12 04:28:54;;;;;;;12.57;1.40;;;6.40;93.40;;;;;;5031559;28;20522;-81
2021/03/12 04:31:24;;;;;;;12.15;1.20;;;6.30;93.50;;;;;;5032748;28;20052;-80
2021/03/12 04:33:51;;;;;;;9.50;1.52;;;6.20;93.60;;;;;;5032790;28;20053;-81
2021/03/12 04:36:19;;;;;;;13.73;1.30;;;6.20;93.70;;;;;;5024111;28;20028;-81
2021/03/12 04:38:48;;;;;;;18.08;1.23;;;6.10;93.80;;;;;;5031602;28;20041;-80
2021/03/12 04:41:16;;;;;;;14.20;1.20;;;6.00;93.70;;;;;;5047791;28;20067;-81
2021/03/12 04:43:43;;;;;;;21.00;2.33;;;6.00;93.80;;;;;;5047436;28;20053;-80
2021/03/12 04:46:13;;;;;;;13.43;1.52;;;5.90;93.80;;;;;;5032873;28;20520;-81
2021/03/12 04:48:45;;;;;;;9.70;1.10;;;5.80;93.90;;;;;;5047326;28;20049;-81
2021/03/12 04:51:16;;;;;;;14.35;1.77;;;5.70;94.20;;;;;;5019427;28;20025;-81
2021/03/12 04:53:44;;;;;;;11.07;1.13;;;5.60;94.00;;;;;;5032117;28;20040;-81
2021/03/12 04:56:13;;;;;;;11.60;1.35;;;5.60;94.10;;;;;;5034808;28;20057;-81
2021/03/12 04:58:43;;;;;;;13.00;1.23;;;5.50;94.20;;;;;;5015659;28;20044;-81
2021/03/12 05:01:10;;;;;;;9.48;1.00;;;5.50;94.30;;;;;;5018496;28;20476;-80
2021/03/12 05:03:39;;;;;;;11.23;1.25;;;5.50;94.40;;;;;;5030188;28;20047;-81
2021/03/12 05:06:08;;;;;;;11.10;1.20;;;5.50;94.50;;;;;;5035593;28;20032;-81
2021/03/12 05:08:38;;;;;;;8.97;0.90;;;5.50;94.60;;;;;;5030252;28;20048;-81
2021/03/12 05:11:12;;;;;;;13.37;1.50;;;5.50;94.60;;;;;;5019823;28;20491;-81
2021/03/12 05:13:59;;;;;;;12.43;1.10;;;5.50;94.60;;;;;;5052302;28;20060;-81
2021/03/12 05:16:33;;;;;;;12.60;0.80;;;5.40;94.60;;;;;;5014988;28;20390;-81
2021/03/12 05:19:03;;;;;;;11.48;1.48;;;5.40;94.70;;;;;;5030239;28;20067;-81
2021/03/12 05:21:31;;;;;;;9.00;1.03;;;5.40;94.70;;;;;;5046273;28;20040;-81
2021/03/12 05:24:00;;;;;;;12.38;1.42;;;5.30;94.80;;;;;;5030123;28;20044;-81
2021/03/12 05:26:28;;;;;;;14.27;1.23;;;5.30;94.80;;;;;;5016617;28;20381;-81
2021/03/12 05:28:56;;;;;;;12.27;1.23;;;5.30;94.80;;;;;;5032040;28;20028;-81
2021/03/12 05:31:25;;;;;;;13.80;1.00;;;5.20;94.80;;;;;;5045616;28;20052;-81
2021/03/12 05:33:53;;;;;;;12.05;0.88;;;5.20;94.90;;;;;;4998671;28;20049;-81
2021/03/12 05:36:21;;;;;;;12.23;1.80;;;5.20;94.90;;;;;;5030519;28;20053;-82
2021/03/12 05:38:48;;;;;;;10.07;1.05;;;5.20;95.00;;;;;;4996941;28;20045;-81
2021/03/12 05:41:24;;;;;;;13.67;1.00;;;5.10;95.00;;;;;;5030280;28;20041;-83
2021/03/12 05:43:51;;;;;;;9.27;1.53;;;5.10;95.10;;;;;;5031552;28;20037;-80
2021/03/12 05:46:18;;;;;;;11.10;1.60;;;5.10;95.10;;;;;;5015835;28;20483;-80
2021/03/12 05:48:46;;;;;;;9.00;1.43;;;5.00;95.10;;;;;;5032637;28;20048;-78
2021/03/12 05:51:17;;;;;;;13.17;1.50;;;5.00;95.20;;;;;;5016675;28;20503;-80
2021/03/12 05:53:46;;;;;;;7.43;1.13;;;5.00;95.20;;;;;;5013951;28;20037;-80
2021/03/12 05:56:15;;;;;;;11.37;1.27;;;5.00;95.30;;;;;;5014650;28;20037;-80
2021/03/12 05:58:59;;;;;;;7.70;1.37;;;5.00;95.30;;;;;;5019878;28;20044;-80
2021/03/12 06:01:26;;;;;;;11.03;1.33;;;5.00;95.30;;;;;;5011991;28;20111;-80
2021/03/12 06:03:53;;;;;;;9.00;1.00;;;5.00;95.40;;;;;;5029905;28;20062;-80
2021/03/12 06:06:24;;;;;;;12.03;1.10;;;5.00;95.40;;;;;;5013951;28;20131;-80
2021/03/12 06:08:50;;;;;;;16.37;1.37;;;4.90;95.40;;;;;;5014868;28;20056;-80
2021/03/12 06:11:17;;;;;;;16.67;1.77;;;5.00;95.40;;;;;;5030442;28;20036;-81
2021/03/12 06:13:52;;;;;;;17.43;1.60;;;5.00;95.40;;;;;;5029357;28;20037;-80
2021/03/12 06:16:37;;;;;;;;;;;5.00;95.40;;;;;;5033821;28;20029;-80
2021/03/12 06:19:15;;;;;;;12.33;1.30;;;5.00;95.30;;;;;;5046156;28;19920;-81
2021/03/12 06:21:45;;;;;;;11.23;1.23;;;5.10;95.40;;;;;;5026264;28;20396;-80
2021/03/12 06:24:30;;;;;;;11.15;1.38;;;5.10;95.30;;;;;;5050202;28;20052;-80
2021/03/12 06:27:31;;;;;;;14.00;1.47;;;5.10;95.60;;;;;;5028128;28;20056;-80
2021/03/12 06:30:18;;;;;;;8.93;1.43;;;5.20;95.30;;;;;;5045085;28;20049;-80
2021/03/12 06:33:04;;;;;;;9.73;1.57;;;5.20;95.20;;;;;;5048892;28;20499;-81
2021/03/12 06:35:54;;;;;;;15.27;1.60;;;5.30;95.20;;;;;;5047875;28;20052;-81
2021/03/12 06:38:55;;;;;;;20.93;1.50;;;5.30;95.10;;;;;;5031794;28;20396;-80
2021/03/12 06:41:40;;;;;;;17.83;2.17;;;5.30;95.00;;;;;;5004921;28;20079;-80
2021/03/12 06:44:28;;;;;;;11.40;2.03;;;5.30;95.00;;;;;;5045856;28;20040;-80
2021/03/12 06:46:58;;;;;;;17.10;1.83;;;5.30;95.00;;;;;;5045745;28;20491;-80
2021/03/12 06:49:27;;;;;;;22.40;2.00;;;5.30;95.00;;;;;;4996350;28;20063;-80
2021/03/12 06:52:36;;;;;;;16.40;1.77;;;5.30;94.90;;;;;;5043922;28;20042;-80
2021/03/12 06:55:10;;;;;;;15.57;2.17;;;5.40;94.90;;;;;;4987213;28;20408;-80
2021/03/12 06:58:09;;;;;;;15.07;1.83;;;5.40;94.90;;;;;;5004591;28;20052;-81
2021/03/12 07:00:49;;;;;;;11.53;1.63;;;5.40;94.90;;;;;;5025514;28;20432;-79
2021/03/12 07:03:31;;;;;;;12.83;1.67;;;5.40;94.90;;;;;;5027126;28;20055;-80
2021/03/12 07:06:21;;;;;;;9.87;1.30;;;5.50;94.80;;;;;;5018387;28;20036;-80
2021/03/12 07:08:50;;;;;;;15.50;2.13;;;5.50;94.80;;;;;;5028900;28;21297;-80
2021/03/12 07:11:36;;;;;;;19.10;2.43;;;5.60;94.70;;;;;;5014292;28;20494;-81
2021/03/12 07:14:23;;;;;;;16.10;2.43;;;5.60;94.70;;;;;;5046567;28;20523;-77
2021/03/12 07:16:50;;;;;;;14.30;1.80;;;5.70;94.80;;;;;;5033162;28;20865;-80
2021/03/12 07:19:20;;;;;;;11.93;1.67;;;5.70;94.40;;;;;;5047163;28;20068;-81
2021/03/12 07:21:51;;;;;;;20.50;2.25;;;5.90;94.20;;;;;;5028133;28;20060;-81
2021/03/12 07:24:21;;;;;;;13.57;3.17;;;5.90;94.20;;;;;;5030109;28;20037;-81
2021/03/12 07:26:50;;;;;;;9.60;1.85;;;6.10;94.10;;;;;;5027295;28;20040;-80
2021/03/12 07:29:21;;;;;;;17.75;3.08;;;6.10;94.10;;;;;;5012828;28;20041;-80
2021/03/12 07:32:10;;;;;;;19.83;2.33;;;6.20;94.00;;;;;;5012175;28;20037;-80
2021/03/12 07:34:39;;;;;;;15.40;1.90;;;6.30;93.90;;;;;;5047577;28;20375;-79
2021/03/12 07:37:33;;;;;;;15.02;1.70;;;6.30;93.70;;;;;;5049237;28;20029;-81
2021/03/12 07:40:05;;;;;;;14.90;1.95;;;6.30;93.70;;;;;;5029462;28;20502;-81
2021/03/12 07:42:33;;;;;;;21.45;2.05;;;6.40;93.60;;;;;;5033381;28;20029;-82
2021/03/12 07:45:30;;;;;;;15.13;1.50;;;6.40;93.70;;;;;;5032813;28;20057;-82
2021/03/12 07:48:13;;;;;;;15.05;1.80;;;6.50;93.70;;;;;;5019562;28;20491;-81
2021/03/12 07:51:09;;;;;;;12.57;1.48;;;6.60;93.70;;;;;;5015560;28;20053;-82
2021/03/12 07:53:53;;;;;;;15.85;2.22;;;6.70;93.60;;;;;;5029666;28;20802;-82
2021/03/12 07:56:44;;;;;;;18.88;2.63;;;6.80;93.20;;;;;;5020075;28;20028;-81
2021/03/12 07:59:47;;;;;;;18.88;1.85;;;6.90;93.00;;;;;;5019706;28;20411;-81
2021/03/12 08:02:54;;;;;;;19.60;2.47;;;7.00;93.00;;;;;;5031215;28;20143;-78
2021/03/12 08:05:49;;;;;;;15.75;2.65;;;7.00;92.90;;;;;;5051390;28;20503;-81
2021/03/12 08:08:37;;;;;;;16.98;2.17;;;7.10;92.60;;;;;;5049931;28;20068;-81
2021/03/12 08:11:38;;;;;;;18.92;2.53;;;7.10;92.60;;;;;;5039647;28;20055;-82
2021/03/12 08:14:20;;;;;;;18.88;2.75;;;7.20;92.40;;;;;;5017072;28;20033;-82
2021/03/12 08:16:58;;;;;;;21.80;2.60;;;7.40;92.50;;;;;;5017801;28;20036;-83
2021/03/12 08:19:29;;;;;;;14.48;2.05;;;7.60;92.40;;;;;;5033488;28;20056;-81
2021/03/12 08:22:41;;;;;;;15.55;1.73;;;7.70;92.10;;;;;;5050014;28;20049;-81
2021/03/12 08:25:31;;;;;;;17.95;1.50;;;7.90;92.00;;;;;;5016286;28;20048;-82
2021/03/12 08:28:12;;;;;;;16.63;3.08;;;8.00;91.70;;;;;;5014025;28;20040;-81
2021/03/12 08:31:03;;;;;;;18.45;2.05;;;8.10;91.70;;;;;;5051220;28;20068;-83
2021/03/12 08:33:46;;;;;;;18.45;1.83;;;8.30;91.30;;;;;;5016206;28;20394;-83
2021/03/12 08:36:33;;;;;;;19.88;1.98;;;8.40;91.00;;;;;;5015907;28;20048;-82
2021/03/12 08:39:26;;;;;;;23.88;2.80;;;8.50;90.50;;;;;;5045791;28;20033;-83
2021/03/12 08:42:17;;;;;;;13.73;1.85;;;8.50;90.40;;;;;;5048409;28;20458;-82
2021/03/12 08:45:07;;;;;;;21.95;2.42;;;8.50;90.70;;;;;;5033268;28;20041;-81
2021/03/12 08:47:54;;;;;;;23.20;2.30;;;8.60;90.60;;;;;;5046532;28;20056;-79
2021/03/12 08:50:22;;;;;;;22.05;4.10;;;8.60;90.30;;;;;;5032177;28;20395;-78
2021/03/12 08:52:53;;;;;;;21.45;3.10;;;8.70;90.30;;;;;;5016739;28;20045;-80
2021/03/12 08:55:44;;;;;;;19.58;3.20;;;8.80;90.00;;;;;;5004905;28;20521;-82
2021/03/12 08:58:24;;;;;;;19.38;1.92;;;9.00;89.30;;;;;;5029407;28;20029;-78
2021/03/12 09:01:14;;;;;;;16.55;2.30;;;9.20;89.40;;;;;;5050007;28;20052;-83
2021/03/12 09:03:49;;;;;;;17.42;2.88;;;9.40;88.80;;;;;;5014005;28;20040;-81
2021/03/12 09:06:51;;;;;;;20.40;2.75;;;9.70;88.30;;;;;;5038209;28;20029;-81
2021/03/12 09:09:37;;;;;;;15.95;1.95;;;9.90;87.30;;;;;;5033042;28;20075;-88
2021/03/12 09:12:27;;;;;;;17.65;2.15;;;10.00;85.60;;;;;;5045646;28;20064;-86
2021/03/12 09:15:02;;;;;;;30.45;3.53;;;10.10;86.90;;;;;;5021523;28;20126;-86
2021/03/12 09:17:37;;;;;;;18.38;3.05;;;10.30;86.70;;;;;;5000275;28;20047;-86
2021/03/12 09:20:07;;;;;;;19.52;1.77;;;10.50;85.70;;;;;;5016824;28;20488;-87
2021/03/12 09:22:38;;;;;;;19.90;2.40;;;10.60;83.80;;;;;;5012855;28;20511;-86
2021/03/12 09:25:06;;;;;;;19.35;2.92;;;10.80;84.10;;;;;;5000912;28;20041;-83
2021/03/12 09:27:59;;;;;;;21.95;3.00;;;10.80;82.50;;;;;;5006622;28;20036;-88
2021/03/12 09:30:59;;;;;;;19.42;3.28;;;10.70;81.90;;;;;;5018345;28;20048;-88
2021/03/12 09:33:43;;;;;;;25.63;3.05;;;10.50;81.80;;;;;;5030170;28;20029;-85
2021/03/12 09:36:34;;;;;;;19.42;2.58;;;10.30;82.60;;;;;;5033728;28;20033;-86
2021/03/12 09:39:30;;;;;;;16.42;2.67;;;10.10;83.40;;;;;;5020478;28;20036;-88
2021/03/12 09:42:07;;;;;;;21.17;2.47;;;10.00;82.80;;;;;;5026074;28;20388;-88
2021/03/12 09:44:41;;;;;;;19.65;2.83;;;9.80;83.70;;;;;;5013878;28;20041;-87
2021/03/12 09:47:15;;;;;;;15.77;2.80;;;9.70;83.40;;;;;;4978975;28;20399;-88
2021/03/12 09:49:51;;;;;;;20.30;3.00;;;9.60;84.40;;;;;;5012848;28;20041;-87
2021/03/12 09:52:24;;;;;;;13.93;2.50;;;9.60;84.40;;;;;;4996041;28;20064;-86
2021/03/12 09:55:06;;;;;;;17.83;3.42;;;9.70;84.40;;;;;;5025958;28;20045;-87
2021/03/12 09:57:36;;;;;;;21.17;3.53;;;9.70;84.40;;;;;;5024672;28;20472;-86
2021/03/12 10:00:10;;;;;;;19.65;3.28;;;9.60;84.40;;;;;;5012473;28;20037;-85
2021/03/12 10:02:56;;;;;;;20.50;2.40;;;9.60;84.80;;;;;;5028806;28;20408;-90
2021/03/12 10:05:45;;;;;;;15.57;2.08;;;9.60;85.40;;;;;;5028789;28;20045;-84
2021/03/12 10:08:32;;;;;;;27.95;3.05;;;9.60;84.60;;;;;;5011174;28;20048;-85
2021/03/12 10:11:17;;;;;;;24.33;2.88;;;9.60;84.50;;;;;;5013434;28;20049;-86
2021/03/12 10:14:29;;;;;;;22.85;3.00;;;9.60;84.40;;;;;;5012713;28;20052;-87
2021/03/12 10:17:28;;;;;;;20.30;1.98;;;9.50;84.30;;;;;;5027643;28;20032;-88
2021/03/12 10:20:08;;;;;;;19.65;2.65;;;9.50;84.20;;;;;;5031094;28;20372;-87
2021/03/12 10:22:37;;;;;;;22.10;2.40;;;9.40;84.70;;;;;;5036963;28;20037;-88
2021/03/12 10:25:07;;;;;;;20.92;2.20;;;9.40;85.30;;;;;;5029116;28;20036;-85
2021/03/12 10:27:37;;;;;;;18.15;2.03;;;9.40;85.40;;;;;;5026519;28;20049;-85
2021/03/12 10:30:14;;;;;;;16.50;2.50;;;9.40;85.50;;;;;;5025572;28;20033;-88
2021/03/12 10:33:02;;;;;;;14.95;1.70;;;9.40;85.10;;;;;;5008391;28;20513;-84
2021/03/12 10:35:49;;;;;;;16.65;2.30;;;9.30;85.60;;;;;;5013442;28;20255;-82
2021/03/12 10:38:28;;;;;;;17.23;2.15;;;9.20;86.20;;;;;;5016138;28;20479;-86
2021/03/12 10:41:01;;;;;;;15.93;1.88;;;9.10;87.20;;;;;;5014017;28;20476;-85
2021/03/12 10:43:32;;;;;;;17.25;2.35;;;9.00;88.30;;;;;;5014476;28;20041;-84
2021/03/12 10:46:07;;;;;;;18.02;2.13;;;8.90;89.10;;;;;;4995482;28;20052;-84
2021/03/12 10:48:42;;;;;;;18.52;2.65;;;8.70;90.00;;;;;;5029215;28;20047;-84
2021/03/12 10:51:11;;;;;;;12.98;1.60;;;8.60;90.50;;;;;;5046049;28;20056;-84
2021/03/12 10:53:54;;;;;;;17.52;1.77;;;8.50;90.80;;;;;;5011022;28;20033;-85
2021/03/12 10:56:22;;;;;;;14.77;1.95;;;8.50;91.00;;;;;;5026158;28;20519;-84
2021/03/12 10:58:50;;;;;;;25.58;2.85;;;8.50;91.00;;;;;;5047976;28;20037;-86
2021/03/12 11:01:24;;;;;;;16.70;2.15;;;8.60;91.10;;;;;;5013567;28;20033;-85
2021/03/12 11:03:53;;;;;;;16.80;2.58;;;8.60;91.10;;;;;;5026562;28;20411;-85
2021/03/12 11:06:22;;;;;;;19.75;2.40;;;8.60;91.20;;;;;;5044975;28;20621;-85
2021/03/12 11:08:49;;;;;;;20.75;2.97;;;8.60;91.30;;;;;;4995692;28;20566;-85
2021/03/12 11:11:44;;;;;;;22.02;2.85;;;8.60;91.40;;;;;;5015965;28;20048;-90
2021/03/12 11:14:11;;;;;;;25.85;3.92;;;8.50;91.60;;;;;;5030987;28;20056;-86
2021/03/12 11:16:37;;;;;;;18.38;3.15;;;8.40;91.70;;;;;;5019273;28;20175;-85
2021/03/12 11:19:04;;;;;;;16.17;2.53;;;8.30;91.80;;;;;;5013246;28;20040;-87
2021/03/12 11:21:31;;;;;;;21.15;2.45;;;8.20;92.20;;;;;;5013042;28;20044;-82
2021/03/12 11:23:58;;;;;;;20.15;2.75;;;8.10;92.60;;;;;;5030521;28;20140;-86
2021/03/12 11:26:25;;;;;;;20.20;3.45;;;8.10;93.10;;;;;;5029974;28;20816;-83
2021/03/12 11:28:52;;;;;;;21.42;2.33;;;8.00;93.00;;;;;;4997744;28;20033;-84
2021/03/12 11:31:19;;;;;;;14.60;2.33;;;8.00;93.20;;;;;;5012745;28;20456;-84
2021/03/12 11:33:46;;;;;;;15.63;2.33;;;8.10;93.30;;;;;;5042881;28;20052;-84
2021/03/12 11:36:12;;;;;;;18.63;2.78;;;8.10;93.30;;;;;;5028558;28;20043;-89
2021/03/12 11:38:40;;;;;;;19.58;3.60;;;8.20;93.30;;;;;;4990164;28;20045;-86
2021/03/12 11:41:07;;;;;;;19.25;3.10;;;8.20;93.30;;;;;;5012682;28;20059;-83
2021/03/12 11:43:34;;;;;;;13.70;2.83;;;8.30;93.40;;;;;;5027455;28;20051;-84
2021/03/12 11:46:00;;;;;;;19.02;2.80;;;8.50;93.40;;;;;;5028128;28;20045;-82
2021/03/12 11:48:27;;;;;;;17.75;2.13;;;8.70;93.20;;;;;;5001134;28;20065;-87
2021/03/12 11:50:54;;;;;;;20.42;2.88;;;8.70;92.90;;;;;;4997808;28;20052;-85
2021/03/12 11:53:21;;;;;;;18.58;3.13;;;8.80;92.60;;;;;;5019571;28;20487;-85
2021/03/12 11:55:48;;;;;;;19.58;2.72;;;8.80;92.20;;;;;;5030880;28;20037;-82
2021/03/12 11:58:15;;;;;;;15.05;2.67;;;8.80;92.40;;;;;;5014150;28;20379;-82
2021/03/12 12:00:42;;;;;;;12.93;2.35;;;8.80;92.30;;;;;;4997016;28;20048;-86
2021/03/12 12:03:08;;;;;;;18.15;2.53;;;8.90;92.40;;;;;;4996369;28;20506;-81
2021/03/12 12:05:34;;;;;;;15.65;2.67;;;9.00;92.30;;;;;;5010724;28;20130;-83
2021/03/12 12:08:01;;;;;;;19.75;2.83;;;9.00;91.80;;;;;;5010989;28;21037;-84
2021/03/12 12:10:28;;;;;;;22.65;3.17;;;9.00;91.80;;;;;;5010973;28;20045;-83
2021/03/12 12:12:57;;;;;;;24.05;2.90;;;9.10;91.50;;;;;;5013316;28;20037;-85
2021/03/12 12:15:29;;;;;;;17.60;2.95;;;9.10;91.40;;;;;;5010582;28;20070;-85
2021/03/12 12:18:00;;;;;;;13.32;2.15;;;9.40;91.30;;;;;;5011829;28;21072;-85
2021/03/12 12:20:29;;;;;;;12.80;2.45;;;9.60;90.50;;;;;;5019656;28;20045;-86
2021/03/12 12:22:55;;;;;;;15.68;2.25;;;10.00;90.90;;;;;;5014383;28;20029;-84
2021/03/12 12:25:22;;;;;;;15.50;2.85;;;10.50;89.10;;;;;;4981375;28;20041;-86
2021/03/12 12:27:49;;;;;;;12.65;1.45;;;10.90;87.90;;;;;;5013932;28;20395;-86
2021/03/12 12:31:55;;;;;;;14.60;2.03;;;10.80;86.50;;;;;;5015356;28;20503;-89
2021/03/12 12:33:58;;;;;;;15.93;2.15;;;10.70;86.10;;;;;;5037754;28;20052;-84
2021/03/12 12:36:25;;;;;;;18.48;1.92;;;10.50;85.90;;;;;;5033045;28;20040;-85
2021/03/12 12:39:00;;;;;;;13.85;1.88;;;10.30;85.60;;;;;;4995661;28;20041;-88
2021/03/12 12:41:26;;;;;;;14.00;1.95;;;10.10;86.10;;;;;;5017490;28;20040;-81
2021/03/12 12:43:53;;;;;;;15.52;1.52;;;10.00;86.30;;;;;;5047105;28;20048;-81
2021/03/12 12:46:20;;;;;;;13.35;1.65;;;10.00;86.10;;;;;;5015412;28;20051;-82
2021/03/12 12:48:46;;;;;;;14.48;2.47;;;9.90;85.60;;;;;;5010432;28;20041;-82
2021/03/12 12:51:13;;;;;;;10.63;1.45;;;9.80;86.10;;;;;;5016928;28;20048;-84
2021/03/12 12:53:40;;;;;;;18.88;1.83;;;9.70;85.80;;;;;;4995793;28;20439;-83
2021/03/12 12:56:07;;;;;;;10.68;1.85;;;9.60;86.90;;;;;;5013438;28;20051;-82
2021/03/12 12:58:36;;;;;;;8.93;1.33;;;9.60;88.00;;;;;;4999358;28;20041;-82
2021/03/12 13:01:03;;;;;;;10.98;1.38;;;9.60;88.40;;;;;;5047807;28;20037;-82
2021/03/12 13:03:30;;;;;;;18.20;2.08;;;9.60;88.80;;;;;;5043547;28;20041;-83
2021/03/12 13:05:56;;;;;;;13.65;1.33;;;9.60;89.10;;;;;;5000396;28;20040;-83
2021/03/12 13:08:23;;;;;;;15.18;1.60;;;9.60;89.10;;;;;;5014229;28;20046;-83
2021/03/12 13:10:49;;;;;;;10.60;1.27;;;9.60;89.50;;;;;;5029653;28;20053;-84
2021/03/12 13:13:16;;;;;;;17.52;2.15;;;9.60;89.60;;;;;;5012699;28;20028;-83
2021/03/12 13:15:43;;;;;;;15.40;2.38;;;9.60;89.70;;;;;;5031438;28;20044;-84
2021/03/12 13:18:10;;;;;;;10.25;1.10;;;9.70;90.00;;;;;;4997987;28;20048;-83
2021/03/12 13:20:48;;;;;;;19.38;2.20;;;9.70;89.80;;;;;;5030593;28;20091;-82
2021/03/12 13:23:15;;;;;;;13.27;1.42;;;9.80;89.40;;;;;;5010558;28;20037;-83
2021/03/12 13:25:41;;;;;;;11.23;1.48;;;9.70;88.80;;;;;;5031440;28;20033;-84